Time;durP1;ratioP1;P1;durP2;ratioP2;P2;SDS_P1;SDS_P2;PMS_P1;PMS_P2;Temp;Humidity;BMP_temperature;BMP_pressure;BME280_temperature;BME280_humidity;BME280_pressure;Samples;Min_cycle;Max_cycle;Signal;HPM_P1;HPM_P2
2024/02/20 00:01:22;;;;;;;12.05;5.75;;;;;;;9.52;100.00;101279.03;5094105;28;20036;-72
2024/02/20 00:03:54;;;;;;;11.63;5.82;;;;;;;9.55;100.00;101275.50;5098423;28;20443;-76
2024/02/20 00:06:24;;;;;;;15.05;6.22;;;;;;;9.49;100.00;101270.41;5094269;28;20032;-75
2024/02/20 00:08:55;;;;;;;13.95;6.13;;;;;;;9.52;100.00;101272.97;5094896;28;20058;-76
2024/02/20 00:11:25;;;;;;;9.13;5.93;;;;;;;9.46;100.00;101278.31;5149350;28;20187;-76
2024/02/20 00:13:56;;;;;;;16.58;5.75;;;;;;;9.36;100.00;101274.16;5094593;28;20244;-75
2024/02/20 00:16:26;;;;;;;14.70;5.88;;;;;;;9.42;100.00;101281.84;5146381;28;20028;-76
2024/02/20 00:18:56;;;;;;;12.82;6.00;;;;;;;9.35;100.00;101280.25;5098055;28;20035;-76
2024/02/20 00:21:27;;;;;;;11.25;5.90;;;;;;;9.46;100.00;101284.38;5094101;28;20118;-76
2024/02/20 00:23:57;;;;;;;12.55;5.20;;;;;;;9.46;100.00;101286.16;5094867;28;20104;-74
2024/02/20 00:26:27;;;;;;;8.68;5.15;;;;;;;9.47;100.00;101285.25;5090980;28;20028;-76
2024/02/20 00:28:58;;;;;;;11.02;5.28;;;;;;;9.48;100.00;101281.75;5094038;28;20035;-75
2024/02/20 00:31:32;;;;;;;7.70;4.90;;;;;;;9.47;100.00;101290.47;5154819;28;20831;-76
2024/02/20 00:34:02;;;;;;;9.15;4.88;;;;;;;9.38;100.00;101290.63;5122461;28;20038;-75
2024/02/20 00:36:33;;;;;;;8.10;4.55;;;;;;;9.41;100.00;101295.78;5110241;28;20032;-73
2024/02/20 00:39:03;;;;;;;9.48;4.82;;;;;;;9.38;100.00;101296.72;5108003;28;20107;-76
2024/02/20 00:41:33;;;;;;;9.25;4.35;;;;;;;9.39;100.00;101297.56;5154495;28;20048;-75
2024/02/20 00:44:04;;;;;;;7.50;4.18;;;;;;;9.33;100.00;101290.72;5111510;28;20080;-75
2024/02/20 00:46:34;;;;;;;6.97;3.80;;;;;;;9.38;100.00;101290.63;5104770;28;20039;-75
2024/02/20 00:49:05;;;;;;;9.43;3.70;;;;;;;9.32;100.00;101299.44;5110694;28;20034;-75
2024/02/20 00:51:35;;;;;;;7.35;3.20;;;;;;;9.36;100.00;101292.41;5110539;28;20031;-74
2024/02/20 00:54:05;;;;;;;5.88;2.75;;;;;;;9.36;100.00;101292.41;5108573;28;20052;-75
2024/02/20 00:56:36;;;;;;;6.78;3.03;;;;;;;9.27;100.00;101297.78;5110967;28;20035;-76
2024/02/20 00:59:09;;;;;;;5.50;2.30;;;;;;;9.27;100.00;101293.44;5165629;28;20064;-76
2024/02/20 01:01:39;;;;;;;3.97;2.35;;;;;;;9.39;100.00;101297.56;5121075;28;20029;-76
2024/02/20 01:04:10;;;;;;;7.35;2.83;;;;;;;9.28;100.00;101299.53;5146934;28;20031;-74
2024/02/20 01:06:40;;;;;;;6.13;2.88;;;;;;;9.27;100.00;101300.41;5098979;28;20505;-76
2024/02/20 01:09:11;;;;;;;8.02;2.60;;;;;;;9.30;100.00;101303.81;5097135;28;20031;-75
2024/02/20 01:11:42;;;;;;;5.85;2.58;;;;;;;9.22;100.00;101304.84;5096918;28;20485;-73
2024/02/20 01:14:12;;;;;;;7.63;2.95;;;;;;;9.24;100.00;101309.16;5085644;28;20032;-75
2024/02/20 01:16:43;;;;;;;6.32;3.00;;;;;;;9.31;100.00;101309.91;5144571;28;20044;-75
2024/02/20 01:19:13;;;;;;;6.15;2.83;;;;;;;9.30;100.00;101308.19;5096301;28;20402;-75
2024/02/20 01:21:43;;;;;;;5.13;2.58;;;;;;;9.23;100.00;101311.78;5096175;28;20477;-76
2024/02/20 01:24:13;;;;;;;6.25;2.53;;;;;;;9.28;100.00;101310.81;5144975;28;20561;-75
2024/02/20 01:26:44;;;;;;;6.15;2.67;;;;;;;9.21;100.00;101309.22;5096228;28;20026;-76
2024/02/20 01:29:14;;;;;;;7.63;3.42;;;;;;;9.23;100.00;101315.25;5142399;28;20039;-76
2024/02/20 01:31:44;;;;;;;6.05;2.75;;;;;;;9.21;100.00;101324.00;5097710;28;20398;-75
2024/02/20 01:34:15;;;;;;;5.43;2.72;;;;;;;9.26;100.00;101314.31;5096224;28;20038;-75
2024/02/20 01:36:45;;;;;;;5.45;2.20;;;;;;;9.16;100.00;101321.47;5132210;28;20509;-76
2024/02/20 01:39:15;;;;;;;4.70;1.60;;;;;;;9.06;100.00;101319.03;5095949;28;20393;-76
2024/02/20 01:41:47;;;;;;;5.03;1.77;;;;;;;9.10;100.00;101317.25;5181575;28;20451;-76
2024/02/20 01:44:18;;;;;;;5.40;1.77;;;;;;;8.98;100.00;101328.75;5096482;28;20044;-76
2024/02/20 01:46:52;;;;;;;3.05;1.60;;;;;;;9.07;100.00;101319.91;5095355;28;20028;-75
2024/02/20 01:49:24;;;;;;;8.10;1.92;;;;;;;9.01;100.00;101327.81;5094089;28;20040;-75
2024/02/20 01:51:56;;;;;;;5.90;1.80;;;;;;;9.00;100.00;101337.41;5143758;28;20115;-76
2024/02/20 01:54:26;;;;;;;4.93;1.67;;;;;;;9.05;100.00;101338.19;5096167;28;20035;-75
2024/02/20 01:56:56;;;;;;;5.88;1.95;;;;;;;8.99;100.00;101340.91;5140932;28;20093;-76
2024/02/20 01:59:27;;;;;;;5.03;1.70;;;;;;;8.87;100.00;101341.09;5098510;28;20024;-75
2024/02/20 02:01:57;;;;;;;8.25;1.98;;;;;;;8.95;100.00;101341.84;5095618;28;20023;-74
2024/02/20 02:04:27;;;;;;;7.30;1.80;;;;;;;8.90;100.00;101343.66;5095394;28;20027;-76
2024/02/20 02:06:58;;;;;;;7.93;1.90;;;;;;;8.88;100.00;101334.16;5134705;28;20157;-75
2024/02/20 02:09:28;;;;;;;4.90;1.60;;;;;;;8.92;100.00;101341.88;5095023;28;20447;-75
2024/02/20 02:11:58;;;;;;;7.93;2.00;;;;;;;8.87;100.00;101337.66;5095200;28;20034;-76
2024/02/20 02:14:29;;;;;;;8.20;1.83;;;;;;;8.90;100.00;101341.03;5096030;28;20035;-76
2024/02/20 02:16:59;;;;;;;8.93;1.90;;;;;;;8.93;100.00;101348.81;5094732;28;20066;-76
2024/02/20 02:19:29;;;;;;;6.40;1.83;;;;;;;8.90;100.00;101337.59;5095701;28;20071;-76
2024/02/20 02:22:00;;;;;;;7.63;2.03;;;;;;;8.89;100.00;101344.53;5095201;28;20093;-76
2024/02/20 02:24:30;;;;;;;7.72;2.17;;;;;;;8.83;100.00;101347.25;5138814;28;20441;-76
2024/02/20 02:27:02;;;;;;;9.10;2.00;;;;;;;8.82;100.00;101344.66;5097212;28;20032;-76
2024/02/20 02:29:32;;;;;;;7.80;1.77;;;;;;;8.86;100.00;101347.22;5132273;28;20066;-76
2024/02/20 02:32:03;;;;;;;7.88;1.92;;;;;;;8.81;100.00;101349.03;5096051;28;20043;-76
2024/02/20 02:34:33;;;;;;;8.25;2.00;;;;;;;8.83;100.00;101349.88;5095459;28;20482;-76
2024/02/20 02:37:04;;;;;;;7.30;1.95;;;;;;;8.85;100.00;101348.09;5127623;28;20077;-75
2024/02/20 02:39:34;;;;;;;6.97;2.00;;;;;;;8.86;100.00;101347.22;5095916;28;20028;-76
2024/02/20 02:42:05;;;;;;;3.45;1.73;;;;;;;8.87;100.00;101354.13;5094123;28;20043;-73
2024/02/20 02:44:36;;;;;;;9.63;2.20;;;;;;;8.75;100.00;101354.31;5134210;28;20588;-75
2024/02/20 02:47:06;;;;;;;4.50;1.70;;;;;;;8.72;100.00;101356.97;5094705;28;20037;-76
2024/02/20 02:49:36;;;;;;;9.82;1.70;;;;;;;8.73;100.00;101361.31;5138161;28;20219;-74
2024/02/20 02:52:07;;;;;;;6.57;2.05;;;;;;;8.71;100.00;101365.69;5158022;28;20016;-75
2024/02/20 02:54:37;;;;;;;5.63;2.00;;;;;;;8.74;100.00;101370.84;5137561;28;20118;-75
2024/02/20 02:57:07;;;;;;;6.90;2.10;;;;;;;8.70;100.00;101366.56;5096691;28;20023;-76
2024/02/20 02:59:38;;;;;;;6.38;2.00;;;;;;;8.84;100.00;101369.84;5094742;28;20023;-75
2024/02/20 03:02:10;;;;;;;10.45;2.00;;;;;;;8.80;100.00;101376.00;5094982;28;20103;-75
2024/02/20 03:04:40;;;;;;;4.68;2.10;;;;;;;8.67;100.00;101377.03;5094556;28;20465;-76
2024/02/20 03:07:11;;;;;;;7.93;1.95;;;;;;;8.81;100.00;101375.09;5137236;28;20051;-75
2024/02/20 03:09:41;;;;;;;9.77;2.08;;;;;;;8.79;100.00;101384.69;5095251;28;20062;-75
2024/02/20 03:12:11;;;;;;;6.35;1.75;;;;;;;8.76;100.00;101376.88;5095721;28;20027;-74
2024/02/20 03:14:42;;;;;;;10.32;2.40;;;;;;;8.73;100.00;101386.53;5094933;28;20078;-76
2024/02/20 03:17:12;;;;;;;9.27;1.90;;;;;;;8.67;100.00;101386.59;5106579;28;20055;-74
2024/02/20 03:19:43;;;;;;;10.05;2.70;;;;;;;8.55;100.00;101386.81;5094608;28;20360;-75
2024/02/20 03:22:15;;;;;;;8.90;2.47;;;;;;;8.62;100.00;101389.28;5093542;28;20496;-76
2024/02/20 03:24:45;;;;;;;9.93;1.65;;;;;;;8.67;100.00;101394.41;5094783;28;20126;-75
2024/02/20 03:27:16;;;;;;;8.55;1.70;;;;;;;8.61;100.00;101399.72;5095036;28;20114;-76
2024/02/20 03:29:46;;;;;;;6.72;1.70;;;;;;;8.58;100.00;101392.81;5129026;28;20027;-74
2024/02/20 03:32:16;;;;;;;5.75;1.48;;;;;;;8.67;100.00;101399.63;5094544;28;20038;-76
2024/02/20 03:34:47;;;;;;;5.50;1.60;;;;;;;8.67;100.00;101389.19;5094695;28;20116;-75
2024/02/20 03:37:17;;;;;;;9.20;1.95;;;;;;;8.58;100.00;101395.41;5094194;28;20051;-76
2024/02/20 03:39:48;;;;;;;5.95;1.40;;;;;;;8.75;100.00;101392.56;5124067;28;20023;-75
2024/02/20 03:42:18;;;;;;;10.65;1.75;;;;;;;8.72;100.00;101401.28;5121760;28;20114;-76
2024/02/20 03:44:48;;;;;;;7.60;1.80;;;;;;;8.76;100.00;101402.13;5094934;28;20507;-75
2024/02/20 03:47:19;;;;;;;6.45;1.40;;;;;;;8.69;100.00;101403.94;5093562;28;20039;-75
2024/02/20 03:49:50;;;;;;;10.63;1.70;;;;;;;8.67;100.00;101410.06;5126361;28;20241;-76
2024/02/20 03:52:21;;;;;;;12.00;1.90;;;;;;;8.70;100.00;101408.28;5095068;28;20074;-74
2024/02/20 03:54:51;;;;;;;10.20;1.58;;;;;;;8.64;100.00;101410.97;5094696;28;20117;-75
2024/02/20 03:57:21;;;;;;;7.32;1.33;;;;;;;8.71;100.00;101425.63;5093625;28;20059;-75
2024/02/20 03:59:55;;;;;;;10.85;2.13;;;;;;;8.69;100.00;101411.75;5093174;28;20508;-76
2024/02/20 04:02:26;;;;;;;9.05;1.90;;;;;;;8.67;100.00;101421.34;5092414;28;20028;-76
2024/02/20 04:04:58;;;;;;;8.55;1.52;;;;;;;8.64;100.00;101417.91;5119933;28;20071;-75
2024/02/20 04:07:28;;;;;;;9.77;1.23;;;;;;;8.61;100.00;101424.06;5093173;28;20121;-76
2024/02/20 04:09:58;;;;;;;10.90;1.65;;;;;;;8.65;100.00;101433.53;5094040;28;20064;-75
2024/02/20 04:12:28;;;;;;;10.75;1.48;;;;;;;8.67;100.00;101429.16;5094004;28;20027;-76
2024/02/20 04:14:59;;;;;;;14.60;2.05;;;;;;;8.66;100.00;101437.00;5094172;28;20354;-76
2024/02/20 04:17:29;;;;;;;8.18;1.60;;;;;;;8.69;100.00;101437.81;5118725;28;20031;-75
2024/02/20 04:20:05;;;;;;;10.60;1.90;;;;;;;8.60;100.00;101444.91;5093749;28;20036;-75
2024/02/20 04:22:39;;;;;;;11.80;1.35;;;;;;;8.55;100.00;101454.53;5116034;28;20093;-76
2024/02/20 04:25:09;;;;;;;6.10;1.40;;;;;;;8.63;100.00;101443.13;5093447;28;20152;-75
2024/02/20 04:27:43;;;;;;;10.52;1.60;;;;;;;8.57;100.00;101452.75;5093716;28;20212;-75
2024/02/20 04:30:13;;;;;;;10.48;2.03;;;;;;;8.57;100.00;101448.41;5093380;28;20494;-74
2024/02/20 04:32:43;;;;;;;14.50;2.08;;;;;;;8.57;100.00;101451.00;5112596;28;20121;-75
2024/02/20 04:35:14;;;;;;;8.65;1.40;;;;;;;8.62;100.00;101456.16;5093664;28;20520;-74
2024/02/20 04:37:45;;;;;;;14.70;2.38;;;;;;;8.58;100.00;101454.50;5135153;28;20568;-75
2024/02/20 04:40:16;;;;;;;9.80;2.25;;;;;;;8.59;100.00;101472.69;5092086;28;20085;-75
2024/02/20 04:42:47;;;;;;;9.85;1.98;;;;;;;8.60;100.00;101468.34;5093424;28;20024;-74
2024/02/20 04:45:18;;;;;;;10.68;1.98;;;;;;;8.62;100.00;101466.59;5093529;28;20066;-76
2024/02/20 04:47:48;;;;;;;9.77;1.63;;;;;;;8.63;100.00;101474.41;5102505;28;20031;-75
2024/02/20 04:50:18;;;;;;;12.10;2.42;;;;;;;8.67;100.00;101476.06;5093038;28;20027;-75
2024/02/20 04:52:49;;;;;;;11.40;2.42;;;;;;;8.58;100.00;101468.34;5092851;28;20497;-75
2024/02/20 04:55:19;;;;;;;13.48;2.63;;;;;;;8.54;100.00;101473.66;5092411;28;20109;-76
2024/02/20 04:57:49;;;;;;;7.97;2.13;;;;;;;8.64;100.00;101480.44;5101347;28;20398;-73
2024/02/20 05:00:19;;;;;;;17.88;2.55;;;;;;;8.51;100.00;101482.34;5093333;28;20031;-76
2024/02/20 05:02:50;;;;;;;11.98;2.78;;;;;;;8.59;100.00;101488.31;5092907;28;20055;-75
2024/02/20 05:05:20;;;;;;;18.52;2.60;;;;;;;8.49;100.00;101486.72;5118002;28;20493;-75
2024/02/20 05:07:50;;;;;;;13.07;2.58;;;;;;;8.49;100.00;101489.34;5092307;28;20032;-74
2024/02/20 05:10:21;;;;;;;18.42;3.25;;;;;;;8.45;100.00;101490.25;5093399;28;20105;-76
2024/02/20 05:12:51;;;;;;;18.55;2.88;;;;;;;8.51;100.00;101495.38;5120770;28;20051;-76
2024/02/20 05:15:22;;;;;;;20.13;3.05;;;;;;;8.45;100.00;101500.69;5094124;28;20059;-76
2024/02/20 05:17:52;;;;;;;22.77;3.38;;;;;;;8.49;100.00;101502.34;5093081;28;20114;-75
2024/02/20 05:20:23;;;;;;;22.15;3.53;;;;;;;8.31;100.00;101497.38;5115144;28;20054;-76
2024/02/20 05:22:53;;;;;;;26.15;3.42;;;;;;;8.42;100.00;101492.88;5115253;28;20500;-76
2024/02/20 05:25:23;;;;;;;16.92;3.55;;;;;;;8.28;100.00;101491.34;5093160;28;20588;-76
2024/02/20 05:27:53;;;;;;;26.10;3.67;;;;;;;8.25;100.00;101496.56;5092346;28;20061;-76
2024/02/20 05:30:24;;;;;;;28.58;4.65;;;;;;;8.26;100.00;101491.38;5093518;28;20123;-76
2024/02/20 05:32:54;;;;;;;25.13;3.67;;;;;;;8.15;100.00;101497.50;5115793;28;20539;-76
2024/02/20 05:35:25;;;;;;;20.80;3.28;;;;;;;8.18;100.00;101498.38;5093217;28;20081;-75
2024/02/20 05:37:55;;;;;;;20.45;2.97;;;;;;;8.16;100.00;101507.91;5092828;28;20115;-76
2024/02/20 05:40:25;;;;;;;16.65;2.78;;;;;;;8.09;100.00;101516.69;5093838;28;20051;-76
2024/02/20 05:42:56;;;;;;;28.00;3.35;;;;;;;8.11;100.00;101520.13;5115462;28;20304;-76
2024/02/20 05:45:26;;;;;;;25.35;3.15;;;;;;;8.13;100.00;101517.50;5096132;28;20040;-76
2024/02/20 05:47:56;;;;;;;23.63;3.42;;;;;;;8.13;100.00;101531.41;5096332;28;20042;-76
2024/02/20 05:50:29;;;;;;;24.13;3.53;;;;;;;8.15;100.00;101527.03;5096382;28;20028;-75
2024/02/20 05:52:59;;;;;;;24.02;3.40;;;;;;;8.20;100.00;101540.03;5095072;28;20032;-76
2024/02/20 05:55:30;;;;;;;24.10;3.15;;;;;;;8.14;100.00;101540.94;5126043;28;20046;-75
2024/02/20 05:58:00;;;;;;;32.60;4.00;;;;;;;8.05;100.00;101535.81;5095301;28;20389;-75
2024/02/20 06:00:31;;;;;;;24.05;3.30;;;;;;;8.04;100.00;101541.03;5102561;28;20021;-75
2024/02/20 06:03:01;;;;;;;18.40;2.92;;;;;;;8.03;100.00;101544.53;5126289;28;20058;-76
2024/02/20 06:05:31;;;;;;;19.35;3.70;;;;;;;8.05;100.00;101538.41;5095919;28;20410;-75
2024/02/20 06:08:03;;;;;;;20.95;3.00;;;;;;;7.99;100.00;101541.06;5095896;28;20040;-76
2024/02/20 06:10:33;;;;;;;23.50;2.97;;;;;;;8.03;100.00;101545.38;5095558;28;20032;-75
2024/02/20 06:13:04;;;;;;;25.25;3.55;;;;;;;8.07;100.00;101552.25;5095056;28;20488;-75
2024/02/20 06:15:34;;;;;;;22.83;3.05;;;;;;;8.09;100.00;101550.53;5193687;28;20585;-76
2024/02/20 06:18:04;;;;;;;17.25;2.63;;;;;;;8.13;100.00;101565.25;5135727;28;20309;-76
2024/02/20 06:20:35;;;;;;;21.77;2.95;;;;;;;8.19;100.00;101564.34;5105421;28;20162;-76
2024/02/20 06:23:05;;;;;;;36.60;3.05;;;;;;;8.14;100.00;101560.88;5096681;28;20481;-76
2024/02/20 06:25:35;;;;;;;24.98;3.47;;;;;;;8.16;100.00;101562.59;5106027;28;20086;-75
2024/02/20 06:28:05;;;;;;;22.65;2.67;;;;;;;8.19;100.00;101569.56;5099054;28;20115;-74
2024/02/20 06:30:36;;;;;;;26.48;2.70;;;;;;;8.19;100.00;101570.41;5097691;28;20031;-75
2024/02/20 06:33:06;;;;;;;27.05;3.10;;;;;;;8.13;100.00;101570.44;5130614;28;20032;-74
2024/02/20 06:35:37;;;;;;;24.33;3.38;;;;;;;8.26;100.00;101572.09;5117807;28;20031;-75
2024/02/20 06:38:08;;;;;;;30.70;4.03;;;;;;;8.26;100.00;101579.91;5163000;28;20023;-75
2024/02/20 06:40:39;;;;;;;31.50;3.90;;;;;;;8.27;100.00;101583.34;5100840;28;20340;-76
2024/02/20 06:43:09;;;;;;;27.55;3.30;;;;;;;8.32;100.00;101577.22;5097966;28;20110;-76
2024/02/20 06:45:40;;;;;;;25.95;3.50;;;;;;;8.29;100.00;101586.81;5113299;28;20039;-76
2024/02/20 06:48:10;;;;;;;27.15;3.55;;;;;;;8.29;100.00;101579.88;5094857;28;20392;-76
2024/02/20 06:50:41;;;;;;;23.17;3.40;;;;;;;8.36;100.00;101581.50;5128751;28;20058;-75
2024/02/20 06:53:11;;;;;;;21.98;3.20;;;;;;;8.23;100.00;101592.09;5099546;28;20024;-76
2024/02/20 06:55:41;;;;;;;23.60;3.42;;;;;;;8.25;100.00;101598.13;5130303;28;20410;-76
2024/02/20 06:58:11;;;;;;;24.13;3.65;;;;;;;8.24;100.00;101599.00;5109398;28;20039;-75
2024/02/20 07:00:42;;;;;;;25.20;3.47;;;;;;;8.33;100.00;101599.78;5098105;28;20107;-75
2024/02/20 07:03:12;;;;;;;27.88;3.40;;;;;;;8.31;100.00;101601.53;5097299;28;20078;-75
2024/02/20 07:05:42;;;;;;;26.25;3.63;;;;;;;8.25;100.00;101604.19;5107545;28;20063;-76
2024/02/20 07:08:13;;;;;;;32.05;3.50;;;;;;;8.28;100.00;101606.78;5151424;28;20027;-75
2024/02/20 07:10:43;;;;;;;31.10;3.53;;;;;;;8.37;100.00;101601.47;5141314;28;20062;-76
2024/02/20 07:13:14;;;;;;;31.05;3.25;;;;;;;8.28;100.00;101604.19;5093334;28;20032;-76
2024/02/20 07:15:44;;;;;;;31.67;3.60;;;;;;;8.34;100.00;101605.84;5094295;28;20309;-76
2024/02/20 07:18:15;;;;;;;31.63;4.05;;;;;;;8.15;100.00;101607.75;5094203;28;20206;-75
2024/02/20 07:20:45;;;;;;;28.35;3.85;;;;;;;8.32;100.00;101605.88;5093950;28;20032;-75
2024/02/20 07:23:16;;;;;;;26.67;3.13;;;;;;;8.42;100.00;101612.69;5094260;28;20040;-75
2024/02/20 07:25:46;;;;;;;29.73;5.65;;;;;;;8.27;100.00;101607.66;5095305;28;20106;-76
2024/02/20 07:28:16;;;;;;;31.60;3.72;;;;;;;8.30;100.00;101607.63;5094153;28;21285;-74
2024/02/20 07:30:48;;;;;;;33.45;5.20;;;;;;;8.32;100.00;101608.47;5094227;28;20146;-76
2024/02/20 07:33:18;;;;;;;30.13;4.50;;;;;;;8.37;100.00;101617.09;5138047;28;20606;-76
2024/02/20 07:35:48;;;;;;;28.90;4.30;;;;;;;8.37;100.00;101614.50;5092769;28;20031;-75
2024/02/20 07:38:19;;;;;;;24.48;3.38;;;;;;;8.43;100.00;101611.84;5090395;28;20123;-75
2024/02/20 07:40:49;;;;;;;28.10;3.38;;;;;;;8.26;100.00;101607.66;5093200;28;20028;-76
2024/02/20 07:43:20;;;;;;;26.70;3.38;;;;;;;8.34;100.00;101613.66;5091290;28;20047;-76
2024/02/20 07:45:50;;;;;;;19.35;3.25;;;;;;;8.29;100.00;101616.31;5092140;28;20027;-75
2024/02/20 07:48:20;;;;;;;28.20;4.68;;;;;;;8.37;100.00;101614.50;5091629;28;20174;-75
2024/02/20 07:50:51;;;;;;;25.40;3.75;;;;;;;8.49;100.00;101614.38;5094078;28;20489;-76
2024/02/20 07:53:21;;;;;;;28.33;3.90;;;;;;;8.52;100.00;101616.94;5091356;28;20062;-75
2024/02/20 07:55:51;;;;;;;31.55;3.90;;;;;;;8.46;100.00;101619.63;5135799;28;20036;-75
2024/02/20 07:58:21;;;;;;;27.05;4.22;;;;;;;8.52;100.00;101609.13;5092061;28;20425;-75
2024/02/20 08:00:52;;;;;;;28.70;3.97;;;;;;;8.54;100.00;101622.16;5093780;28;20028;-75
2024/02/20 08:03:24;;;;;;;26.73;3.88;;;;;;;8.58;100.00;101632.50;5091601;28;20040;-76
2024/02/20 08:05:54;;;;;;;31.20;3.88;;;;;;;8.51;100.00;101629.97;5124937;28;20081;-76
2024/02/20 08:08:24;;;;;;;31.23;3.72;;;;;;;8.55;100.00;101632.53;5092105;28;20039;-75
2024/02/20 08:10:55;;;;;;;33.63;4.65;;;;;;;8.60;100.00;101628.16;5094041;28;20028;-76
2024/02/20 08:13:25;;;;;;;28.58;3.50;;;;;;;8.78;100.00;101627.09;5134333;28;20481;-76
2024/02/20 08:15:58;;;;;;;30.60;3.83;;;;;;;8.83;100.00;101628.75;5094756;28;20093;-76
2024/02/20 08:18:28;;;;;;;29.25;3.75;;;;;;;8.87;100.00;101625.22;5092533;28;20036;-76
2024/02/20 08:20:59;;;;;;;26.83;4.43;;;;;;;8.93;100.00;101625.16;5094293;28;20663;-75
2024/02/20 08:23:29;;;;;;;27.92;3.67;;;;;;;9.02;100.00;101638.09;5092472;28;20031;-75
2024/02/20 08:26:00;;;;;;;27.05;4.07;;;;;;;8.98;100.00;101639.00;5095030;28;20039;-75
2024/02/20 08:28:31;;;;;;;33.08;4.47;;;;;;;9.10;100.00;101633.63;5093715;28;20066;-76
2024/02/20 08:31:01;;;;;;;30.45;4.00;;;;;;;8.87;100.00;101630.44;5094489;28;20255;-75
2024/02/20 08:33:31;;;;;;;31.25;3.58;;;;;;;8.97;100.00;101642.50;5094249;28;20031;-75
2024/02/20 08:36:02;;;;;;;23.92;4.28;;;;;;;9.06;100.00;101639.75;5095417;28;20213;-75
2024/02/20 08:38:32;;;;;;;28.98;3.80;;;;;;;9.07;100.00;101633.66;5128439;28;20035;-75
2024/02/20 08:41:03;;;;;;;24.70;3.20;;;;;;;9.20;100.00;101643.06;5094540;28;20031;-75
2024/02/20 08:43:33;;;;;;;26.08;3.35;;;;;;;9.35;100.00;101642.88;5094497;28;20032;-76
2024/02/20 08:46:04;;;;;;;26.30;4.38;;;;;;;9.44;99.68;101650.56;5093144;28;20028;-76
2024/02/20 08:48:34;;;;;;;23.75;3.78;;;;;;;9.36;98.84;101645.47;5093386;28;20031;-76
2024/02/20 08:51:04;;;;;;;23.88;3.38;;;;;;;9.48;99.85;101644.44;5143964;28;20126;-74
2024/02/20 08:53:35;;;;;;;26.42;3.67;;;;;;;9.89;98.17;101645.53;5093684;28;20192;-76
2024/02/20 08:56:05;;;;;;;26.92;3.78;;;;;;;11.02;92.78;101639.13;5093409;28;20042;-75
2024/02/20 08:58:36;;;;;;;32.85;4.60;;;;;;;12.10;87.18;101632.28;5091800;28;20032;-75
2024/02/20 09:01:07;;;;;;;18.40;3.63;;;;;;;11.94;87.10;101637.97;5093414;28;20433;-76
2024/02/20 09:03:37;;;;;;;25.33;3.65;;;;;;;12.05;83.89;101639.41;5093837;28;20039;-77
2024/02/20 09:06:07;;;;;;;21.17;3.47;;;;;;;10.77;87.21;101634.41;5093642;28;20114;-76
2024/02/20 09:08:38;;;;;;;24.42;4.28;;;;;;;10.89;88.71;101639.41;5131064;28;20127;-77
2024/02/20 09:11:08;;;;;;;32.42;4.22;;;;;;;10.59;89.32;101637.38;5093424;28;20027;-75
2024/02/20 09:13:38;;;;;;;28.83;4.20;;;;;;;10.34;89.78;101638.72;5093379;28;20032;-76
2024/02/20 09:16:09;;;;;;;22.25;3.45;;;;;;;10.34;92.42;101638.72;5096631;28;20034;-74
2024/02/20 09:18:39;;;;;;;20.83;3.63;;;;;;;10.14;93.12;101638.22;5095513;28;20123;-75
2024/02/20 09:21:13;;;;;;;23.63;3.63;;;;;;;10.18;92.43;101632.03;5123355;28;21022;-75
2024/02/20 09:23:44;;;;;;;21.00;4.10;;;;;;;10.12;93.24;101635.59;5097062;28;20082;-76
2024/02/20 09:26:14;;;;;;;28.08;3.75;;;;;;;10.31;93.38;101628.31;5096435;28;20051;-73
2024/02/20 09:28:45;;;;;;;24.75;3.85;;;;;;;10.17;92.85;101630.31;5151875;28;20492;-76
2024/02/20 09:31:15;;;;;;;25.67;4.32;;;;;;;10.00;92.63;101640.16;5097487;28;20038;-75
2024/02/20 09:33:46;;;;;;;23.73;4.15;;;;;;;10.23;93.54;101640.66;5096275;28;20039;-76
2024/02/20 09:36:16;;;;;;;25.77;4.03;;;;;;;10.19;93.77;101637.22;5107646;28;20106;-75
2024/02/20 09:38:46;;;;;;;25.42;4.88;;;;;;;10.17;93.44;101646.00;5102170;28;20259;-75
2024/02/20 09:41:22;;;;;;;33.13;4.95;;;;;;;10.07;93.72;101639.19;5100102;28;20149;-75
2024/02/20 09:43:53;;;;;;;27.77;4.75;;;;;;;9.96;94.25;101639.31;5097414;28;20469;-76
2024/02/20 09:46:26;;;;;;;27.45;4.85;;;;;;;9.97;93.99;101643.66;5094816;28;20050;-76
2024/02/20 09:48:57;;;;;;;20.73;4.13;;;;;;;10.17;93.77;101635.53;5127727;28;20081;-75
2024/02/20 09:51:30;;;;;;;26.60;4.32;;;;;;;9.94;93.66;101640.22;5096016;28;20444;-76
2024/02/20 09:54:03;;;;;;;26.20;4.38;;;;;;;10.18;93.85;101639.88;5097052;28;20477;-75
2024/02/20 09:56:36;;;;;;;28.48;4.68;;;;;;;10.08;93.52;101636.56;5125129;28;20408;-76
2024/02/20 09:59:08;;;;;;;29.75;4.43;;;;;;;10.24;94.38;101642.38;5137331;28;20036;-75
2024/02/20 10:01:38;;;;;;;35.58;9.13;;;;;;;10.14;93.81;101646.03;5095502;28;20086;-76
2024/02/20 10:04:09;;;;;;;28.63;6.50;;;;;;;10.26;93.46;101635.38;5097153;28;20339;-76
2024/02/20 10:06:40;;;;;;;27.45;4.93;;;;;;;10.23;93.25;101635.41;5095061;28;20378;-76
2024/02/20 10:09:12;;;;;;;32.50;6.22;;;;;;;10.32;94.17;101640.50;5095772;28;20129;-76
2024/02/20 10:11:42;;;;;;;30.50;4.05;;;;;;;10.58;93.00;101636.53;5119941;28;20030;-74
2024/02/20 10:14:12;;;;;;;28.20;3.50;;;;;;;10.58;90.29;101633.91;5096249;28;20023;-76
2024/02/20 10:16:43;;;;;;;28.85;4.05;;;;;;;10.80;90.62;101630.00;5095712;28;20032;-76
2024/02/20 10:19:19;;;;;;;24.17;5.10;;;;;;;10.91;90.76;101625.41;5096054;28;20096;-75
2024/02/20 10:21:50;;;;;;;23.60;4.22;;;;;;;11.04;90.53;101627.75;5095904;28;20085;-76
2024/02/20 10:24:21;;;;;;;28.33;3.83;;;;;;;11.36;89.79;101633.16;5094481;28;20460;-74
2024/02/20 10:26:51;;;;;;;22.20;4.47;;;;;;;11.48;88.35;101627.63;5096138;28;20055;-76
2024/02/20 10:29:21;;;;;;;21.33;3.28;;;;;;;11.28;87.55;101636.84;5093878;28;20479;-74
2024/02/20 10:31:52;;;;;;;25.67;5.80;;;;;;;10.98;87.76;101634.84;5135445;28;20035;-75
2024/02/20 10:34:22;;;;;;;30.88;7.28;;;;;;;11.22;88.28;101640.44;5094396;28;20385;-75
2024/02/20 10:37:03;;;;;;;24.05;3.75;;;;;;;10.92;88.69;101628.88;5120437;28;20027;-76
2024/02/20 10:39:34;;;;;;;26.58;4.43;;;;;;;11.12;86.82;101638.91;5130908;28;20027;-76
2024/02/20 10:42:06;;;;;;;28.83;6.50;;;;;;;11.09;87.08;101625.88;5099302;28;20034;-73
2024/02/20 10:44:39;;;;;;;20.55;3.15;;;;;;;11.41;87.15;101630.44;5095093;28;20032;-76
2024/02/20 10:47:10;;;;;;;33.42;7.30;;;;;;;11.24;87.01;101627.34;5155779;28;20027;-75
2024/02/20 10:49:40;;;;;;;28.30;6.32;;;;;;;11.23;87.86;101610.75;5093956;28;20583;-75
2024/02/20 10:52:11;;;;;;;27.20;5.70;;;;;;;11.16;87.38;101617.03;5091186;28;20051;-75
2024/02/20 10:54:42;;;;;;;26.40;4.55;;;;;;;11.12;87.64;101623.19;5092807;28;20035;-75
2024/02/20 10:57:13;;;;;;;29.13;4.88;;;;;;;11.29;87.31;101615.00;5094375;28;20042;-76
2024/02/20 10:59:44;;;;;;;28.42;4.95;;;;;;;11.24;87.31;101620.31;5094250;28;20082;-75
2024/02/20 11:02:14;;;;;;;24.58;4.07;;;;;;;11.38;87.55;101623.50;5120681;28;20028;-76
2024/02/20 11:04:46;;;;;;;21.52;4.30;;;;;;;11.61;88.06;101615.19;5164181;28;20075;-76
2024/02/20 11:07:18;;;;;;;22.02;3.20;;;;;;;11.40;86.70;101621.72;5094418;28;20031;-75
2024/02/20 11:10:16;;;;;;;24.58;3.13;;;;;;;11.47;87.67;101606.75;5091657;28;20024;-75
2024/02/20 11:12:47;;;;;;;18.00;3.00;;;;;;;11.68;86.06;101595.78;5094546;28;20051;-75
2024/02/20 11:15:21;;;;;;;21.58;3.33;;;;;;;11.65;86.01;101604.56;5110358;28;20035;-75
2024/02/20 11:17:52;;;;;;;21.83;3.80;;;;;;;11.60;86.22;101595.97;5102100;28;20026;-77
2024/02/20 11:20:24;;;;;;;21.13;2.78;;;;;;;11.49;85.86;101600.59;5139639;28;20390;-74
2024/02/20 11:22:54;;;;;;;15.15;2.63;;;;;;;11.49;85.28;101592.72;5095179;28;20032;-76
2024/02/20 11:25:30;;;;;;;16.65;2.70;;;;;;;11.50;86.11;101590.97;5094965;28;20485;-76
2024/02/20 11:28:12;;;;;;;17.50;2.67;;;;;;;11.35;85.76;101594.78;5095752;28;20401;-75
2024/02/20 11:30:45;;;;;;;15.05;2.60;;;;;;;11.33;86.04;101575.66;5150030;28;20393;-75
2024/02/20 11:33:18;;;;;;;14.80;2.20;;;;;;;11.53;86.25;101581.28;5094686;28;20473;-76
2024/02/20 11:35:49;;;;;;;13.90;2.60;;;;;;;11.69;86.17;101568.72;5097797;28;20028;-75